createdAt,value
2023-06-09T00:02:11.153Z,4.20
2023-06-09T00:04:57.544Z,4.20
2023-06-09T00:07:43.389Z,4.30
2023-06-09T00:10:28.734Z,4.53
2023-06-09T00:13:16.828Z,4.47
2023-06-09T00:16:02.241Z,4.40
2023-06-09T00:18:47.637Z,4.60
2023-06-09T00:21:32.999Z,4.20
2023-06-09T00:24:22.973Z,4.60
2023-06-09T00:27:10.103Z,4.45
2023-06-09T00:29:55.750Z,4.43
2023-06-09T00:32:43.716Z,4.28
2023-06-09T00:35:28.983Z,4.28
2023-06-09T00:38:15.101Z,4.43
2023-06-09T00:41:00.228Z,4.38
2023-06-09T00:43:48.918Z,4.32
2023-06-09T00:46:36.078Z,3.95
2023-06-09T00:49:21.585Z,3.70
2023-06-09T00:52:07.487Z,4.28
2023-06-09T00:54:54.080Z,4.05
2023-06-09T00:57:40.501Z,3.92
2023-06-09T01:00:30.890Z,4.35
2023-06-09T01:03:16.885Z,4.95
2023-06-09T01:06:31.694Z,4.43
2023-06-09T01:09:27.997Z,4.43
2023-06-09T01:12:23.883Z,4.10
2023-06-09T01:15:18.565Z,4.03
2023-06-09T01:18:09.851Z,4.38
2023-06-09T01:21:15.943Z,4.47
2023-06-09T01:24:46.897Z,4.43
2023-06-09T01:27:37.517Z,3.88
2023-06-09T01:30:23.290Z,4.13
2023-06-09T01:33:15.885Z,3.75
2023-06-09T01:36:01.680Z,4.22
2023-06-09T01:38:46.698Z,4.50
2023-06-09T01:41:32.185Z,3.88
2023-06-09T01:44:17.560Z,3.90
2023-06-09T01:47:03.447Z,3.88
2023-06-09T01:50:09.187Z,5.47
2023-06-09T01:53:10.967Z,4.65
2023-06-09T01:56:05.928Z,4.30
2023-06-09T01:58:58.229Z,4.30
2023-06-09T02:01:47.342Z,4.10
2023-06-09T02:04:35.546Z,4.43
2023-06-09T02:07:22.809Z,4.18
2023-06-09T02:10:09.896Z,4.97
2023-06-09T02:12:55.326Z,4.43
2023-06-09T02:15:46.871Z,4.45
2023-06-09T02:18:33.229Z,4.22
2023-06-09T02:21:18.883Z,4.18
2023-06-09T02:24:04.581Z,4.82
2023-06-09T02:26:51.933Z,4.18
2023-06-09T02:29:37.439Z,4.45
2023-06-09T02:32:23.352Z,4.32
2023-06-09T02:35:09.374Z,4.38
2023-06-09T02:37:54.870Z,4.20
2023-06-09T02:40:44.749Z,4.57
2023-06-09T02:43:30.419Z,4.63
2023-06-09T02:46:18.567Z,4.78
2023-06-09T02:49:04.170Z,4.25
2023-06-09T02:51:49.602Z,4.90
2023-06-09T02:54:36.564Z,4.80
2023-06-09T02:57:22.412Z,4.75
2023-06-09T03:00:09.139Z,5.60
2023-06-09T03:02:55.631Z,4.88
2023-06-09T03:05:45.227Z,5.13
2023-06-09T03:08:32.205Z,4.82
2023-06-09T03:11:17.553Z,4.22
2023-06-09T03:14:03.075Z,4.75
2023-06-09T03:16:49.121Z,5.03
2023-06-09T03:19:34.643Z,4.93
2023-06-09T03:22:21.724Z,5.07
2023-06-09T03:25:07.654Z,5.80
2023-06-09T03:27:54.209Z,4.70
2023-06-09T03:30:40.570Z,4.65
2023-06-09T03:33:28.360Z,5.35
2023-06-09T03:36:14.600Z,5.28
2023-06-09T03:39:00.339Z,5.68
2023-06-09T03:41:45.991Z,5.32
2023-06-09T03:44:31.660Z,5.18
2023-06-09T03:47:17.967Z,5.85
2023-06-09T03:50:03.951Z,5.22
2023-06-09T03:52:51.757Z,5.43
2023-06-09T03:55:39.548Z,5.93
2023-06-09T03:58:25.440Z,5.30
2023-06-09T04:01:12.087Z,5.45
2023-06-09T04:03:58.753Z,5.22
2023-06-09T04:06:47.309Z,5.57
2023-06-09T04:09:36.889Z,5.15
2023-06-09T04:12:22.374Z,5.70
2023-06-09T04:15:09.132Z,5.45
2023-06-09T04:17:56.587Z,5.82
2023-06-09T04:20:46.575Z,5.07
2023-06-09T04:23:33.678Z,6.03
2023-06-09T04:26:19.973Z,5.35
2023-06-09T04:29:05.660Z,5.43
2023-06-09T04:31:59.892Z,5.05
2023-06-09T04:34:47.030Z,4.82
2023-06-09T04:37:33.464Z,5.20
2023-06-09T04:40:23.218Z,5.22
2023-06-09T04:43:10.512Z,5.40
2023-06-09T04:45:58.426Z,5.30
2023-06-09T04:48:45.788Z,5.10
2023-06-09T04:51:31.327Z,5.07
2023-06-09T04:54:18.746Z,4.28
2023-06-09T04:57:06.931Z,4.63
2023-06-09T04:59:54.160Z,4.88
2023-06-09T05:02:40.624Z,4.95
2023-06-09T05:05:26.204Z,4.65
2023-06-09T05:08:13.797Z,4.55
2023-06-09T05:11:00.160Z,4.57
2023-06-09T05:13:45.644Z,4.90
2023-06-09T05:16:30.997Z,4.57
2023-06-09T05:19:16.971Z,4.60
2023-06-09T05:22:02.344Z,4.50
2023-06-09T05:24:47.779Z,4.80
2023-06-09T05:27:33.257Z,3.78
2023-06-09T05:30:18.722Z,4.00
2023-06-09T05:33:04.373Z,4.05
2023-06-09T05:35:50.443Z,4.60
2023-06-09T05:38:37.170Z,4.00
2023-06-09T05:41:22.749Z,4.70
2023-06-09T05:44:07.986Z,4.50
2023-06-09T05:46:53.480Z,4.75
2023-06-09T05:49:38.962Z,5.15
2023-06-09T05:52:25.262Z,4.90
2023-06-09T05:55:11.139Z,4.65
2023-06-09T05:57:57.739Z,4.53
2023-06-09T06:00:43.879Z,4.28
2023-06-09T06:03:29.946Z,4.50
2023-06-09T06:06:15.101Z,5.07
2023-06-09T06:09:00.765Z,5.13
2023-06-09T06:11:46.717Z,5.70
2023-06-09T06:14:32.166Z,4.55
2023-06-09T06:17:17.535Z,4.88
2023-06-09T06:20:07.162Z,4.65
2023-06-09T06:22:53.103Z,4.25
2023-06-09T06:25:42.171Z,5.03
2023-06-09T06:28:28.008Z,5.00
2023-06-09T06:31:14.371Z,4.63
2023-06-09T06:34:00.099Z,5.05
2023-06-09T06:36:45.428Z,4.50
2023-06-09T06:39:30.784Z,4.57
2023-06-09T06:42:16.289Z,4.78
2023-06-09T06:45:13.474Z,5.25
2023-06-09T06:47:59.145Z,4.57
2023-06-09T06:50:44.529Z,5.10
2023-06-09T06:53:30.298Z,4.60
2023-06-09T06:56:16.180Z,5.05
2023-06-09T06:59:01.784Z,4.63
2023-06-09T07:01:47.657Z,4.50
2023-06-09T07:04:33.104Z,4.60
2023-06-09T07:07:18.770Z,5.63
2023-06-09T07:10:04.372Z,5.70
2023-06-09T07:12:49.452Z,5.38
2023-06-09T07:15:37.658Z,5.53
2023-06-09T07:18:22.930Z,5.90
2023-06-09T07:21:08.853Z,5.90
2023-06-09T07:23:54.579Z,5.22
2023-06-09T07:26:39.896Z,4.97
2023-06-09T07:29:25.910Z,5.25
2023-06-09T07:32:12.089Z,5.82
2023-06-09T07:34:58.814Z,5.40
2023-06-09T07:37:44.705Z,5.93
2023-06-09T07:40:30.064Z,5.85
2023-06-09T07:43:16.135Z,5.28
2023-06-09T07:46:01.610Z,5.97
2023-06-09T07:48:47.081Z,6.60
2023-06-09T07:51:37.854Z,5.70
2023-06-09T07:54:23.075Z,5.68
2023-06-09T07:57:08.679Z,5.53
2023-06-09T07:59:53.963Z,5.35
2023-06-09T08:02:42.432Z,5.35
2023-06-09T08:05:28.243Z,5.68
2023-06-09T08:08:13.624Z,5.97
2023-06-09T08:11:02.051Z,6.60
2023-06-09T08:13:47.374Z,6.60
2023-06-09T08:16:33.103Z,5.95
2023-06-09T08:19:18.364Z,5.60
2023-06-09T08:22:03.892Z,6.88
2023-06-09T08:24:49.229Z,6.70
2023-06-09T08:27:34.490Z,7.15
2023-06-09T08:30:19.822Z,6.63
2023-06-09T08:33:05.509Z,7.60
2023-06-09T08:35:50.753Z,6.78
2023-06-09T08:38:36.655Z,7.70
2023-06-09T08:41:25.734Z,6.95
2023-06-09T08:44:12.438Z,8.18
2023-06-09T08:47:01.792Z,8.25
2023-06-09T08:49:49.684Z,8.40
2023-06-09T08:52:35.601Z,8.68
2023-06-09T08:55:21.317Z,7.72
2023-06-09T08:58:06.773Z,8.43
2023-06-09T09:00:53.256Z,8.23
2023-06-09T09:03:38.720Z,8.70
2023-06-09T09:06:23.995Z,8.52
2023-06-09T09:09:09.798Z,7.93
2023-06-09T09:11:59.502Z,7.63
2023-06-09T09:14:45.260Z,8.52
2023-06-09T09:17:31.882Z,9.02
2023-06-09T09:20:17.473Z,8.85
2023-06-09T09:23:05.497Z,8.68
2023-06-09T09:25:51.359Z,8.38
2023-06-09T09:28:43.820Z,8.90
2023-06-09T09:31:37.590Z,8.70
2023-06-09T09:34:25.353Z,8.38
2023-06-09T09:37:12.923Z,8.00
2023-06-09T09:39:58.352Z,9.00
2023-06-09T09:42:48.138Z,9.00
2023-06-09T09:45:38.679Z,8.73
2023-06-09T09:48:25.968Z,9.63
2023-06-09T09:51:12.317Z,9.05
2023-06-09T09:53:59.240Z,10.10
2023-06-09T09:56:47.318Z,9.73
2023-06-09T09:59:33.986Z,10.30
2023-06-09T10:02:25.494Z,9.18
2023-06-09T10:05:11.943Z,10.35
2023-06-09T10:07:59.728Z,10.35
2023-06-09T10:10:45.371Z,9.48
2023-06-09T10:13:30.849Z,10.52
2023-06-09T10:16:17.537Z,10.27
2023-06-09T10:19:03.409Z,9.30
2023-06-09T10:21:50.228Z,9.60
2023-06-09T10:24:37.376Z,10.00
2023-06-09T10:27:23.749Z,10.50
2023-06-09T10:30:10.296Z,10.45
2023-06-09T10:33:09.169Z,10.25
2023-06-09T10:35:59.708Z,10.05
2023-06-09T10:38:48.423Z,9.20
2023-06-09T10:41:37.987Z,9.60
2023-06-09T10:44:42.145Z,9.52
2023-06-09T10:47:48.924Z,9.45
2023-06-09T10:50:34.362Z,9.95
2023-06-09T10:53:21.032Z,10.23
2023-06-09T10:56:54.379Z,9.18
2023-06-09T10:59:39.757Z,10.35
2023-06-09T11:02:24.927Z,10.38
2023-06-09T11:05:12.443Z,9.15
2023-06-09T11:08:04.968Z,10.40
2023-06-09T11:10:50.419Z,9.73
2023-06-09T11:13:41.052Z,8.70
2023-06-09T11:16:26.833Z,9.23
2023-06-09T11:19:24.151Z,8.27
2023-06-09T11:22:13.147Z,9.23
2023-06-09T11:24:58.712Z,8.98
2023-06-09T11:27:45.092Z,9.98
2023-06-09T11:30:32.462Z,8.32
2023-06-09T11:33:41.380Z,9.02
2023-06-09T11:36:29.043Z,9.23
2023-06-09T11:39:14.745Z,9.38
2023-06-09T11:42:00.735Z,9.30
2023-06-09T11:44:45.918Z,9.35
2023-06-09T11:47:32.788Z,8.27
2023-06-09T11:50:18.372Z,7.75
2023-06-09T11:53:09.478Z,8.38
2023-06-09T11:56:01.315Z,8.65
2023-06-09T11:58:46.809Z,9.13
2023-06-09T12:01:32.914Z,8.70
2023-06-09T12:04:18.574Z,8.80
2023-06-09T12:07:04.689Z,7.40
2023-06-09T12:09:57.392Z,8.40
2023-06-09T12:12:50.603Z,7.72
2023-06-09T12:15:36.113Z,8.32
2023-06-09T12:18:22.518Z,7.75
2023-06-09T12:21:08.464Z,7.97
2023-06-09T12:23:57.513Z,7.63
2023-06-09T12:26:50.701Z,8.40
2023-06-09T12:29:35.785Z,6.93
2023-06-09T12:32:24.853Z,7.95
2023-06-09T12:35:10.438Z,7.30
2023-06-09T12:37:55.816Z,6.80
2023-06-09T12:40:53.569Z,7.43
2023-06-09T12:43:52.515Z,6.90
2023-06-09T12:46:39.197Z,7.18
2023-06-09T12:49:31.478Z,6.30
2023-06-09T12:52:16.921Z,7.40
2023-06-09T12:55:10.909Z,6.30
2023-06-09T12:57:57.014Z,6.75
2023-06-09T13:00:42.537Z,6.40
2023-06-09T13:03:29.806Z,7.55
2023-06-09T13:06:16.648Z,6.63
2023-06-09T13:09:02.918Z,6.03
2023-06-09T13:11:48.456Z,5.53
2023-06-09T13:14:33.735Z,6.55
2023-06-09T13:17:19.232Z,5.80
2023-06-09T13:20:05.058Z,5.80
2023-06-09T13:22:51.661Z,5.53
2023-06-09T13:25:42.127Z,6.05
2023-06-09T13:28:28.029Z,5.05
2023-06-09T13:31:13.292Z,5.45
2023-06-09T13:33:58.751Z,5.55
2023-06-09T13:36:45.009Z,4.80
2023-06-09T13:39:30.330Z,5.10
2023-06-09T13:42:15.814Z,5.80
2023-06-09T13:45:01.145Z,5.30
2023-06-09T13:47:46.762Z,5.75
2023-06-09T13:50:32.194Z,5.70
2023-06-09T13:53:17.824Z,5.25
2023-06-09T13:56:03.268Z,5.47
2023-06-09T13:58:48.772Z,5.07
2023-06-09T14:01:37.248Z,5.30
2023-06-09T14:04:22.797Z,5.15
2023-06-09T14:07:08.322Z,5.20
2023-06-09T14:09:55.018Z,4.95
2023-06-09T14:12:41.707Z,5.70
2023-06-09T14:15:29.904Z,5.22
2023-06-09T14:18:15.923Z,5.43
2023-06-09T14:21:01.394Z,5.05
2023-06-09T14:23:46.823Z,4.88
2023-06-09T14:26:32.289Z,5.25
2023-06-09T14:29:17.682Z,5.20
2023-06-09T14:32:04.639Z,5.22
2023-06-09T14:34:50.572Z,5.53
2023-06-09T14:37:36.287Z,4.97
2023-06-09T14:40:22.651Z,5.07
2023-06-09T14:43:10.349Z,5.15
2023-06-09T14:45:56.137Z,4.60
2023-06-09T14:48:41.570Z,5.10
2023-06-09T14:51:26.998Z,5.30
2023-06-09T14:54:12.438Z,4.93
2023-06-09T14:56:57.750Z,5.20
2023-06-09T14:59:43.188Z,5.03
2023-06-09T15:02:28.688Z,4.85
2023-06-09T15:05:14.085Z,4.38
2023-06-09T15:08:00.757Z,4.80
2023-06-09T15:10:46.984Z,4.93
2023-06-09T15:13:32.370Z,4.70
2023-06-09T15:16:20.637Z,4.97
2023-06-09T15:19:05.851Z,4.80
2023-06-09T15:21:56.140Z,5.22
2023-06-09T15:24:56.191Z,4.95
2023-06-09T15:27:41.338Z,4.78
2023-06-09T15:30:31.138Z,5.03
2023-06-09T15:33:18.820Z,5.00
2023-06-09T15:36:04.396Z,4.82
2023-06-09T15:38:49.450Z,4.95
2023-06-09T15:41:35.095Z,4.75
2023-06-09T15:44:21.438Z,4.90
2023-06-09T15:47:07.735Z,4.50
2023-06-09T15:49:53.318Z,4.90
2023-06-09T15:52:38.777Z,4.78
2023-06-09T15:55:24.451Z,4.78
2023-06-09T15:58:09.709Z,4.85
2023-06-09T16:00:55.358Z,4.70
2023-06-09T16:03:41.181Z,4.65
2023-06-09T16:06:26.583Z,4.90
2023-06-09T16:09:11.818Z,5.10
2023-06-09T16:11:57.146Z,4.30
2023-06-09T16:14:42.527Z,4.47
2023-06-09T16:17:27.985Z,4.80
2023-06-09T16:20:13.380Z,4.32
2023-06-09T16:22:59.142Z,4.53
2023-06-09T16:25:44.479Z,4.85
2023-06-09T16:28:29.885Z,4.78
2023-06-09T16:31:15.291Z,4.13
2023-06-09T16:34:00.702Z,4.28
2023-06-09T16:36:46.117Z,4.68
2023-06-09T16:39:31.488Z,4.30
2023-06-09T16:42:17.054Z,4.60
2023-06-09T16:45:02.475Z,4.68
2023-06-09T16:47:47.954Z,4.85
2023-06-09T16:50:33.360Z,4.80
2023-06-09T16:53:18.646Z,4.40
2023-06-09T16:56:04.476Z,4.55
2023-06-09T16:58:49.770Z,4.47
2023-06-09T17:01:35.276Z,5.10
2023-06-09T17:04:20.951Z,4.90
2023-06-09T17:07:06.024Z,4.75
2023-06-09T17:09:51.712Z,4.30
2023-06-09T17:12:37.016Z,4.10
2023-06-09T17:15:25.414Z,4.15
2023-06-09T17:18:11.725Z,4.25
2023-06-09T17:20:57.447Z,4.30
2023-06-09T17:23:42.942Z,4.70
2023-06-09T17:26:30.075Z,5.20
2023-06-09T17:29:15.497Z,4.68
2023-06-09T17:32:01.382Z,4.38
2023-06-09T17:34:46.476Z,4.53
2023-06-09T17:37:32.233Z,4.70
2023-06-09T17:40:18.172Z,4.30
2023-06-09T17:43:04.462Z,4.65
2023-06-09T17:45:50.124Z,4.95
2023-06-09T17:48:36.469Z,5.20
2023-06-09T17:51:21.834Z,4.47
2023-06-09T17:54:07.180Z,4.53
2023-06-09T17:56:52.544Z,4.72
2023-06-09T17:59:38.179Z,4.55
2023-06-09T18:02:24.010Z,4.82
2023-06-09T18:05:10.169Z,5.00
2023-06-09T18:07:55.518Z,4.80
2023-06-09T18:10:40.727Z,4.53
2023-06-09T18:13:26.796Z,4.68
2023-06-09T18:16:12.894Z,4.40
2023-06-09T18:18:58.253Z,4.88
2023-06-09T18:21:44.345Z,4.70
2023-06-09T18:24:29.476Z,4.75
2023-06-09T18:27:16.493Z,4.68
2023-06-09T18:30:02.345Z,4.60
2023-06-09T18:32:47.637Z,4.50
2023-06-09T18:35:33.162Z,4.85
2023-06-09T18:38:24.808Z,4.45
2023-06-09T18:41:09.854Z,4.35
2023-06-09T18:43:57.502Z,4.65
2023-06-09T18:46:43.053Z,4.50
2023-06-09T18:49:28.208Z,4.63
2023-06-09T18:52:13.622Z,4.63
2023-06-09T18:54:58.929Z,4.40
2023-06-09T18:57:44.537Z,4.60
2023-06-09T19:00:29.955Z,4.75
2023-06-09T19:03:15.662Z,4.80
2023-06-09T19:06:01.398Z,4.88
2023-06-09T19:08:46.990Z,5.40
2023-06-09T19:11:32.580Z,5.13
2023-06-09T19:14:18.105Z,5.65
2023-06-09T19:17:03.680Z,5.90
2023-06-09T19:19:49.197Z,6.15
2023-06-09T19:22:34.319Z,5.85
2023-06-09T19:25:19.840Z,5.30
2023-06-09T19:28:08.296Z,6.25
2023-06-09T19:30:53.427Z,5.68
2023-06-09T19:33:39.070Z,5.78
2023-06-09T19:36:24.755Z,6.07
2023-06-09T19:39:10.275Z,5.57
2023-06-09T19:41:55.372Z,5.88
2023-06-09T19:44:40.730Z,5.80
2023-06-09T19:47:26.283Z,5.00
2023-06-09T19:50:11.769Z,5.50
2023-06-09T19:53:00.609Z,5.82
2023-06-09T19:55:46.366Z,5.43
2023-06-09T19:58:31.753Z,5.78
2023-06-09T20:01:17.166Z,5.75
2023-06-09T20:04:02.515Z,5.25
2023-06-09T20:06:48.004Z,5.72
2023-06-09T20:09:33.492Z,5.47
2023-06-09T20:12:18.895Z,5.43
2023-06-09T20:15:04.711Z,5.72
2023-06-09T20:17:50.283Z,5.47
2023-06-09T20:20:35.855Z,5.68
2023-06-09T20:23:30.894Z,5.82
2023-06-09T20:26:18.977Z,5.32
2023-06-09T20:29:05.033Z,5.25
2023-06-09T20:31:50.199Z,4.80
2023-06-09T20:34:35.781Z,5.40
2023-06-09T20:37:21.965Z,5.43
2023-06-09T20:40:08.206Z,5.28
2023-06-09T20:42:53.359Z,4.70
2023-06-09T20:45:38.643Z,5.07
2023-06-09T20:48:24.154Z,4.90
2023-06-09T20:51:10.113Z,4.88
2023-06-09T20:53:57.028Z,5.28
2023-06-09T20:56:42.592Z,4.95
2023-06-09T20:59:27.835Z,5.55
2023-06-09T21:02:13.292Z,4.82
2023-06-09T21:04:59.290Z,5.18
2023-06-09T21:07:44.843Z,5.05
2023-06-09T21:10:30.282Z,5.30
2023-06-09T21:13:15.878Z,5.15
2023-06-09T21:16:01.125Z,4.88
2023-06-09T21:18:46.606Z,5.18
2023-06-09T21:21:32.191Z,5.30
2023-06-09T21:24:17.532Z,5.32
2023-06-09T21:27:02.730Z,5.43
2023-06-09T21:29:48.162Z,5.47
2023-06-09T21:32:37.264Z,4.53
2023-06-09T21:35:23.192Z,5.05
2023-06-09T21:38:08.398Z,5.35
2023-06-09T21:40:53.802Z,5.43
2023-06-09T21:43:39.459Z,5.07
2023-06-09T21:46:24.925Z,5.00
2023-06-09T21:49:10.088Z,4.68
2023-06-09T21:51:55.477Z,5.13
2023-06-09T21:54:40.755Z,4.82
2023-06-09T21:57:26.164Z,4.88
2023-06-09T22:00:13.539Z,4.60
2023-06-09T22:03:01.449Z,4.72
2023-06-09T22:05:47.111Z,4.38
2023-06-09T22:08:33.686Z,4.57
2023-06-09T22:11:20.709Z,4.60
2023-06-09T22:14:06.985Z,4.70
2023-06-09T22:16:53.456Z,4.28
2023-06-09T22:19:38.957Z,3.90
2023-06-09T22:22:24.412Z,4.75
2023-06-09T22:25:10.460Z,4.55
2023-06-09T22:27:56.509Z,3.97
2023-06-09T22:30:42.484Z,4.25
2023-06-09T22:33:29.608Z,4.30
2023-06-09T22:36:15.610Z,4.40
2023-06-09T22:39:01.384Z,4.40
2023-06-09T22:41:46.862Z,4.10
2023-06-09T22:44:32.047Z,4.03
2023-06-09T22:47:17.619Z,4.20
2023-06-09T22:50:11.341Z,4.05
2023-06-09T22:52:56.999Z,4.22
2023-06-09T22:55:42.519Z,4.15
2023-06-09T22:58:29.112Z,3.53
2023-06-09T23:01:14.126Z,4.10
2023-06-09T23:04:01.305Z,3.75
2023-06-09T23:06:46.933Z,3.45
2023-06-09T23:09:32.399Z,3.85
2023-06-09T23:12:18.063Z,3.70
2023-06-09T23:15:08.966Z,3.30
2023-06-09T23:17:55.397Z,3.70
2023-06-09T23:20:40.747Z,4.00
2023-06-09T23:23:27.004Z,3.90
2023-06-09T23:26:12.849Z,3.75
2023-06-09T23:28:58.298Z,4.10
2023-06-09T23:31:43.618Z,3.78
2023-06-09T23:34:29.229Z,3.88
2023-06-09T23:37:16.337Z,3.80
2023-06-09T23:40:01.776Z,3.83
2023-06-09T23:42:47.349Z,3.65
2023-06-09T23:45:32.566Z,4.30
2023-06-09T23:48:18.097Z,4.07
2023-06-09T23:51:03.425Z,3.65
2023-06-09T23:53:48.892Z,4.30
2023-06-09T23:56:34.550Z,4.00
2023-06-09T23:59:20.261Z,4.00
